Etusivu
METAR-TAF:

METAR-TAF

Lentoasemat :

Tokushima, Japani

Leveyspiiri: 34-08N, Pituuspiiri: 134-37E, korkeus merenpinnasta: 8 m

Tämänhetkinen sää

Tämä raportti tehtiin 48 minuuttia sitten, kello 13.00 UTC
Tuuli 7 kn pohjoisesta
Lämpötila 20°C
Kosteus 78%
Ilmanpaine 1004 hPa
Näkyvyys 10 km tai enemmän
Muutamia pilviä 3000 ft:n korkeudessa
Hajonneita pilviä 5000 ft:n korkeudessa
Hajonneita pilviä

METAR: RJOS 251300Z 01007KT 9999 FEW030 BKN050 BKN/// 20/16 Q1004

Aika: 22:48 (13:48 UTC)


TAF: puuttuu

Säähavainnot ja -ennusteet yli 4000 lentoasemalta (METAR- ja TAF-raportit).

Käytössä olevat sääasemat on merkitty karttaan keltaisilla ja punaisilla pisteillä.

Aseta hiiri pisteen päälle nähdäksesi sääaseman nimen.

Klikkaa sitten nähdäksesi säähavainnot ja -ennusteet.

Kartan vaihtaminen: klikkaa mustalla rastilla varustettuja vihreitä pisteitä, niin voit zoomata sisään; viivalla varustettua vihreää pistettä, niin voit zoomata ulos tai vihreitä nuolia, niin pääset viereisille kartoille.


METAR-TAF: